createdAt,value
2024-05-09T00:00:38.774Z,10.61
2024-05-09T00:01:33.079Z,10.54
2024-05-09T00:02:32.083Z,10.60
2024-05-09T00:03:32.012Z,10.54
2024-05-09T00:04:32.018Z,10.60
2024-05-09T00:05:32.123Z,10.48
2024-05-09T00:06:31.979Z,10.58
2024-05-09T00:07:31.975Z,10.68
2024-05-09T00:08:32.136Z,10.60
2024-05-09T00:09:31.975Z,10.65
2024-05-09T00:10:36.205Z,10.62
2024-05-09T00:11:33.023Z,10.64
2024-05-09T00:12:31.990Z,10.60
2024-05-09T00:13:31.948Z,10.60
2024-05-09T00:14:32.161Z,10.65
2024-05-09T00:15:31.937Z,10.55
2024-05-09T00:16:31.965Z,10.61
2024-05-09T00:17:32.116Z,10.54
2024-05-09T00:18:31.997Z,10.57
2024-05-09T00:19:32.259Z,10.62
2024-05-09T00:20:38.197Z,10.61
2024-05-09T00:21:33.940Z,10.58
2024-05-09T00:22:31.905Z,10.49
2024-05-09T00:23:32.011Z,10.49
2024-05-09T00:24:31.889Z,10.54
2024-05-09T00:25:31.895Z,10.57
2024-05-09T00:26:31.964Z,10.57
2024-05-09T00:27:31.877Z,10.58
2024-05-09T00:28:31.878Z,10.55
2024-05-09T00:29:31.903Z,10.45
2024-05-09T00:30:35.352Z,10.35
2024-05-09T00:31:31.878Z,10.02
2024-05-09T00:32:32.024Z,9.78
2024-05-09T00:33:31.942Z,9.59
2024-05-09T00:34:31.931Z,9.63
2024-05-09T00:35:31.890Z,9.81
2024-05-09T00:36:31.829Z,9.63
2024-05-09T00:37:31.834Z,9.66
2024-05-09T00:38:31.988Z,9.67
2024-05-09T00:39:31.776Z,9.91
2024-05-09T00:40:38.691Z,9.94
2024-05-09T00:41:32.990Z,9.96
2024-05-09T00:42:31.782Z,9.96
2024-05-09T00:43:31.773Z,9.91
2024-05-09T00:44:31.863Z,9.93
2024-05-09T00:45:31.821Z,9.93
2024-05-09T00:46:31.789Z,9.99
2024-05-09T00:47:31.856Z,9.96
2024-05-09T00:48:31.835Z,10.05
2024-05-09T00:49:31.842Z,10.02
2024-05-09T00:50:36.214Z,10.17
2024-05-09T00:51:32.777Z,10.16
2024-05-09T00:52:31.748Z,10.18
2024-05-09T00:53:31.849Z,10.10
2024-05-09T00:54:31.723Z,10.14
2024-05-09T00:55:31.727Z,9.96
2024-05-09T00:56:31.779Z,9.83
2024-05-09T00:57:31.730Z,9.66
2024-05-09T00:58:31.681Z,9.75
2024-05-09T00:59:31.814Z,9.75
2024-05-09T01:00:38.349Z,9.84
2024-05-09T01:01:32.728Z,9.85
2024-05-09T01:02:31.734Z,9.91
2024-05-09T01:03:31.895Z,9.99
2024-05-09T01:04:31.750Z,10.02
2024-05-09T01:05:31.692Z,10.09
2024-05-09T01:06:31.666Z,10.05
2024-05-09T01:07:31.663Z,10.08
2024-05-09T01:08:31.710Z,9.78
2024-05-09T01:09:31.646Z,9.69
2024-05-09T01:10:34.727Z,9.54
2024-05-09T01:11:32.761Z,9.59
2024-05-09T01:12:31.708Z,9.42
2024-05-09T01:13:31.628Z,9.32
2024-05-09T01:14:31.666Z,9.22
2024-05-09T01:15:31.582Z,9.29
2024-05-09T01:16:31.600Z,9.29
2024-05-09T01:17:31.860Z,9.44
2024-05-09T01:18:31.675Z,9.44
2024-05-09T01:19:31.774Z,9.48
2024-05-09T01:20:39.858Z,9.45
2024-05-09T01:21:33.602Z,9.50
2024-05-09T01:22:31.584Z,9.44
2024-05-09T01:23:31.703Z,9.45
2024-05-09T01:24:31.602Z,9.50
2024-05-09T01:25:31.554Z,9.24
2024-05-09T01:26:31.564Z,9.03
2024-05-09T01:27:31.587Z,8.88
2024-05-09T01:28:32.540Z,8.90
2024-05-09T01:29:31.546Z,8.83
2024-05-09T01:30:35.255Z,8.74
2024-05-09T01:31:33.583Z,8.93
2024-05-09T01:32:31.695Z,9.01
2024-05-09T01:33:31.774Z,9.03
2024-05-09T01:34:31.494Z,9.19
2024-05-09T01:35:31.547Z,9.22
2024-05-09T01:36:31.497Z,9.30
2024-05-09T01:37:31.487Z,9.48
2024-05-09T01:38:31.684Z,9.41
2024-05-09T01:39:31.469Z,9.41
2024-05-09T01:40:37.969Z,9.27
2024-05-09T01:41:33.498Z,9.14
2024-05-09T01:42:31.456Z,8.95
2024-05-09T01:43:31.467Z,8.71
2024-05-09T01:44:31.517Z,8.50
2024-05-09T01:45:31.531Z,8.49
2024-05-09T01:46:31.428Z,8.29
2024-05-09T01:47:31.599Z,8.24
2024-05-09T01:48:31.514Z,8.23
2024-05-09T01:49:31.471Z,8.38
2024-05-09T01:50:38.225Z,8.49
2024-05-09T01:51:33.395Z,8.67
2024-05-09T01:52:31.418Z,8.70
2024-05-09T01:53:31.565Z,8.80
2024-05-09T01:54:31.375Z,8.90
2024-05-09T01:55:31.374Z,8.96
2024-05-09T01:56:31.389Z,8.95
2024-05-09T01:57:31.551Z,9.01
2024-05-09T01:58:31.381Z,9.06
2024-05-09T01:59:31.396Z,8.92
2024-05-09T02:00:38.412Z,8.60
2024-05-09T02:01:55.382Z,8.49
2024-05-09T02:02:31.422Z,8.29
2024-05-09T02:03:31.580Z,8.28
2024-05-09T02:04:31.495Z,8.17
2024-05-09T02:05:31.369Z,8.24
2024-05-09T02:06:31.305Z,8.35
2024-05-09T02:07:31.346Z,8.44
2024-05-09T02:08:31.396Z,8.56
2024-05-09T02:09:31.283Z,8.71
2024-05-09T02:10:32.995Z,8.85
2024-05-09T02:11:31.422Z,8.89
2024-05-09T02:12:31.429Z,8.81
2024-05-09T02:13:31.290Z,8.72
2024-05-09T02:14:31.467Z,8.56
2024-05-09T02:15:31.272Z,8.29
2024-05-09T02:16:31.271Z,8.23
2024-05-09T02:17:31.394Z,8.13
2024-05-09T02:18:31.354Z,8.10
2024-05-09T02:19:31.373Z,8.13
2024-05-09T02:20:36.004Z,8.06
2024-05-09T02:21:32.237Z,8.13
2024-05-09T02:22:31.251Z,8.20
2024-05-09T02:23:31.354Z,8.31
2024-05-09T02:24:31.218Z,8.29
2024-05-09T02:25:31.217Z,8.38
2024-05-09T02:26:31.216Z,8.41
2024-05-09T02:27:31.205Z,8.28
2024-05-09T02:28:31.209Z,8.38
2024-05-09T02:29:31.308Z,8.39
2024-05-09T02:30:39.074Z,8.47
2024-05-09T02:31:32.167Z,8.44
2024-05-09T02:32:31.310Z,8.39
2024-05-09T02:33:31.516Z,8.41
2024-05-09T02:34:31.215Z,8.38
2024-05-09T02:35:31.242Z,8.46
2024-05-09T02:36:31.133Z,8.31
2024-05-09T02:37:31.134Z,8.09
2024-05-09T02:38:31.205Z,7.91
2024-05-09T02:39:31.145Z,7.77
2024-05-09T02:40:37.422Z,7.58
2024-05-09T02:41:33.151Z,7.58
2024-05-09T02:42:31.102Z,7.54
2024-05-09T02:43:31.104Z,7.60
2024-05-09T02:44:31.139Z,7.64
2024-05-09T02:45:31.070Z,7.77
2024-05-09T02:46:31.069Z,7.91
2024-05-09T02:47:31.189Z,8.10
2024-05-09T02:48:31.193Z,8.09
2024-05-09T02:49:31.154Z,8.24
2024-05-09T02:50:37.668Z,8.38
2024-05-09T02:51:32.091Z,8.46
2024-05-09T02:52:31.051Z,8.35
2024-05-09T02:53:31.209Z,8.34
2024-05-09T02:54:31.049Z,8.13
2024-05-09T02:55:31.113Z,8.02
2024-05-09T02:56:31.090Z,7.77
2024-05-09T02:57:31.024Z,7.58
2024-05-09T02:58:31.057Z,7.61
2024-05-09T02:59:31.059Z,7.58
2024-05-09T03:00:38.060Z,7.76
2024-05-09T03:01:32.042Z,7.78
2024-05-09T03:02:31.155Z,7.83
2024-05-09T03:03:31.573Z,7.87
2024-05-09T03:04:31.274Z,7.91
2024-05-09T03:05:31.191Z,8.04
2024-05-09T03:06:37.632Z,8.17
2024-05-09T03:07:30.973Z,8.28
2024-05-09T03:08:31.906Z,8.20
2024-05-09T03:09:30.940Z,8.24
2024-05-09T03:10:35.774Z,8.14
2024-05-09T03:11:32.034Z,8.24
2024-05-09T03:12:31.003Z,8.29
2024-05-09T03:13:31.024Z,8.29
2024-05-09T03:14:31.046Z,8.29
2024-05-09T03:15:30.923Z,8.37
2024-05-09T03:16:30.922Z,8.42
2024-05-09T03:17:31.253Z,8.47
2024-05-09T03:18:31.079Z,8.44
2024-05-09T03:19:30.995Z,8.41
2024-05-09T03:20:34.537Z,8.59
2024-05-09T03:21:30.883Z,8.63
2024-05-09T03:22:30.876Z,8.57
2024-05-09T03:23:30.974Z,8.56
2024-05-09T03:24:30.902Z,8.52
2024-05-09T03:25:30.872Z,8.49
2024-05-09T03:26:30.968Z,8.44
2024-05-09T03:27:30.885Z,8.34
2024-05-09T03:28:30.871Z,8.46
2024-05-09T03:29:31.000Z,8.35
2024-05-09T03:30:39.518Z,8.52
2024-05-09T03:31:31.820Z,8.47
2024-05-09T03:32:31.012Z,8.57
2024-05-09T03:33:31.132Z,8.59
2024-05-09T03:34:30.960Z,8.57
2024-05-09T03:35:30.951Z,8.80
2024-05-09T03:36:30.783Z,8.63
2024-05-09T03:37:30.795Z,8.71
2024-05-09T03:38:31.009Z,8.72
2024-05-09T03:39:30.813Z,8.74
2024-05-09T03:40:31.318Z,8.68
2024-05-09T03:41:30.871Z,8.71
2024-05-09T03:42:30.793Z,8.56
2024-05-09T03:43:30.784Z,8.04
2024-05-09T03:44:30.830Z,7.80
2024-05-09T03:45:30.790Z,7.69
2024-05-09T03:46:30.784Z,7.58
2024-05-09T03:47:30.912Z,7.60
2024-05-09T03:48:30.797Z,7.57
2024-05-09T03:49:30.861Z,7.57
2024-05-09T03:50:35.416Z,7.58
2024-05-09T03:51:31.722Z,7.76
2024-05-09T03:52:30.700Z,7.76
2024-05-09T03:53:30.726Z,7.74
2024-05-09T03:54:30.724Z,7.73
2024-05-09T03:55:30.740Z,7.61
2024-05-09T03:56:30.812Z,7.62
2024-05-09T03:57:30.712Z,7.86
2024-05-09T03:58:30.688Z,7.76
2024-05-09T03:59:30.902Z,7.81
2024-05-09T04:00:37.360Z,7.84
2024-05-09T04:01:30.783Z,7.76
2024-05-09T04:02:30.716Z,7.61
2024-05-09T04:03:30.792Z,7.37
2024-05-09T04:04:30.874Z,7.25
2024-05-09T04:05:31.230Z,7.18
2024-05-09T04:06:30.630Z,7.11
2024-05-09T04:07:30.628Z,6.93
2024-05-09T04:08:30.695Z,6.96
2024-05-09T04:09:30.616Z,6.78
2024-05-09T04:10:33.784Z,6.74
2024-05-09T04:11:30.734Z,6.78
2024-05-09T04:12:30.641Z,6.78
2024-05-09T04:13:30.594Z,6.96
2024-05-09T04:14:30.684Z,6.99
2024-05-09T04:15:30.632Z,7.26
2024-05-09T04:16:30.578Z,7.29
2024-05-09T04:17:30.802Z,7.43
2024-05-09T04:18:30.635Z,7.49
2024-05-09T04:19:30.641Z,7.55
2024-05-09T04:20:37.723Z,7.68
2024-05-09T04:21:32.568Z,7.62
2024-05-09T04:22:30.542Z,7.76
2024-05-09T04:23:30.612Z,7.83
2024-05-09T04:24:30.525Z,7.73
2024-05-09T04:25:30.547Z,7.78
2024-05-09T04:26:30.583Z,7.84
2024-05-09T04:27:30.514Z,7.91
2024-05-09T04:28:30.504Z,7.99
2024-05-09T04:29:30.674Z,8.12
2024-05-09T04:30:37.258Z,8.14
2024-05-09T04:31:32.488Z,8.14
2024-05-09T04:32:30.593Z,8.06
2024-05-09T04:33:30.919Z,8.04
2024-05-09T04:34:30.564Z,8.01
2024-05-09T04:35:30.562Z,8.09
2024-05-09T04:36:30.453Z,8.12
2024-05-09T04:37:30.456Z,8.09
2024-05-09T04:38:30.483Z,8.14
2024-05-09T04:39:30.493Z,8.24
2024-05-09T04:40:34.352Z,8.28
2024-05-09T04:41:30.466Z,8.29
2024-05-09T04:42:30.439Z,8.32
2024-05-09T04:43:30.426Z,8.46
2024-05-09T04:44:30.548Z,8.31
2024-05-09T04:45:30.526Z,8.28
2024-05-09T04:46:30.434Z,8.49
2024-05-09T04:47:30.631Z,8.44
2024-05-09T04:48:30.508Z,8.39
2024-05-09T04:49:30.517Z,8.50
2024-05-09T04:50:36.658Z,8.47
2024-05-09T04:51:31.379Z,8.42
2024-05-09T04:52:30.364Z,8.44
2024-05-09T04:53:30.405Z,8.50
2024-05-09T04:54:36.074Z,8.52
2024-05-09T04:55:30.475Z,8.59
2024-05-09T04:56:30.397Z,8.77
2024-05-09T04:57:30.358Z,8.74
2024-05-09T04:58:30.335Z,8.72
2024-05-09T04:59:30.558Z,8.85
2024-05-09T05:00:36.055Z,8.75
2024-05-09T05:01:31.350Z,8.86
2024-05-09T05:02:30.401Z,8.78
2024-05-09T05:03:30.485Z,8.85
2024-05-09T05:04:30.385Z,8.75
2024-05-09T05:05:30.416Z,8.81
2024-05-09T05:06:30.323Z,8.96
2024-05-09T05:07:30.299Z,8.90
2024-05-09T05:08:30.306Z,8.90
2024-05-09T05:09:30.277Z,9.04
2024-05-09T05:10:35.778Z,8.98
2024-05-09T05:11:31.344Z,8.96
2024-05-09T05:12:30.336Z,8.93
2024-05-09T05:13:30.258Z,8.88
2024-05-09T05:14:30.374Z,8.99
2024-05-09T05:15:30.240Z,9.04
2024-05-09T05:16:30.249Z,9.01
2024-05-09T05:17:30.432Z,9.08
2024-05-09T05:18:31.314Z,9.12
2024-05-09T05:19:30.487Z,9.22
2024-05-09T05:20:33.654Z,9.23
2024-05-09T05:21:31.355Z,9.32
2024-05-09T05:22:30.200Z,9.18
2024-05-09T05:23:30.287Z,9.26
2024-05-09T05:24:30.246Z,9.36
2024-05-09T05:25:30.216Z,9.42
2024-05-09T05:26:30.240Z,9.48
2024-05-09T05:27:30.193Z,9.60
2024-05-09T05:28:30.203Z,9.62
2024-05-09T05:29:30.229Z,9.72
2024-05-09T05:30:34.512Z,9.83
2024-05-09T05:31:30.225Z,9.96
2024-05-09T05:32:30.400Z,9.98
2024-05-09T05:33:30.380Z,10.08
2024-05-09T05:34:30.171Z,10.12
2024-05-09T05:35:30.364Z,10.08
2024-05-09T05:36:30.244Z,10.05
2024-05-09T05:37:30.142Z,10.03
2024-05-09T05:38:30.224Z,10.09
2024-05-09T05:39:30.163Z,10.14
2024-05-09T05:40:36.250Z,10.10
2024-05-09T05:41:31.244Z,10.24
2024-05-09T05:42:30.195Z,10.30
2024-05-09T05:43:30.121Z,10.34
2024-05-09T05:44:30.179Z,10.35
2024-05-09T05:45:30.106Z,10.38
2024-05-09T05:46:30.123Z,10.42
2024-05-09T05:47:30.207Z,10.45
2024-05-09T05:48:30.131Z,10.54
2024-05-09T05:49:30.155Z,10.54
2024-05-09T05:50:35.552Z,10.60
2024-05-09T05:51:31.133Z,10.54
2024-05-09T05:52:30.066Z,10.55
2024-05-09T05:53:30.104Z,10.61
2024-05-09T05:54:30.054Z,10.55
2024-05-09T05:55:30.106Z,10.45
2024-05-09T05:56:30.078Z,10.45
2024-05-09T05:57:30.052Z,10.58
2024-05-09T05:58:30.032Z,10.48
2024-05-09T05:59:30.024Z,10.62
2024-05-09T06:00:37.467Z,10.46
2024-05-09T06:01:31.176Z,10.48
2024-05-09T06:02:30.101Z,10.45
2024-05-09T06:03:30.093Z,10.54
2024-05-09T06:04:30.075Z,10.57
2024-05-09T06:05:30.079Z,10.65
2024-05-09T06:06:29.987Z,10.61
2024-05-09T06:07:29.988Z,10.57
2024-05-09T06:08:30.630Z,10.55
2024-05-09T06:09:30.961Z,10.60
2024-05-09T06:10:37.435Z,10.72
2024-05-09T06:11:32.101Z,10.75
2024-05-09T06:12:30.021Z,10.79
2024-05-09T06:13:29.970Z,10.80
2024-05-09T06:14:30.083Z,10.73
2024-05-09T06:15:29.936Z,10.78
2024-05-09T06:16:29.941Z,10.80
2024-05-09T06:17:29.983Z,10.87
2024-05-09T06:18:30.355Z,10.95
2024-05-09T06:19:29.988Z,11.03
2024-05-09T06:20:35.351Z,11.03
2024-05-09T06:21:31.931Z,11.01
2024-05-09T06:22:30.018Z,11.09
2024-05-09T06:23:29.949Z,11.18
2024-05-09T06:24:29.879Z,11.16
2024-05-09T06:25:29.917Z,11.25
2024-05-09T06:26:30.009Z,11.23
2024-05-09T06:27:29.879Z,11.48
2024-05-09T06:28:29.855Z,11.46
2024-05-09T06:29:29.992Z,11.49
2024-05-09T06:30:37.289Z,11.58
2024-05-09T06:31:30.960Z,11.55
2024-05-09T06:32:29.919Z,11.52
2024-05-09T06:33:31.117Z,11.58
2024-05-09T06:34:30.007Z,11.52
2024-05-09T06:35:29.922Z,11.55
2024-05-09T06:36:29.829Z,11.62
2024-05-09T06:37:29.837Z,11.66
2024-05-09T06:38:29.847Z,11.55
2024-05-09T06:39:29.812Z,11.76
2024-05-09T06:40:36.655Z,11.69
2024-05-09T06:41:31.831Z,11.77
2024-05-09T06:42:29.806Z,11.77
2024-05-09T06:43:29.780Z,11.70
2024-05-09T06:44:29.916Z,11.74
2024-05-09T06:45:29.775Z,11.67
2024-05-09T06:46:29.772Z,11.74
2024-05-09T06:47:29.874Z,11.70
2024-05-09T06:48:29.931Z,11.73
2024-05-09T06:49:30.086Z,11.87
2024-05-09T06:50:35.778Z,11.82
2024-05-09T06:51:31.745Z,11.95
2024-05-09T06:52:29.748Z,11.89
2024-05-09T06:53:29.817Z,11.80
2024-05-09T06:54:29.735Z,11.76
2024-05-09T06:55:29.733Z,11.91
2024-05-09T06:56:29.891Z,11.93
2024-05-09T06:57:29.721Z,12.08
2024-05-09T06:58:29.714Z,12.07
2024-05-09T06:59:29.875Z,12.08
2024-05-09T07:00:35.624Z,12.13
2024-05-09T07:01:31.798Z,12.14
2024-05-09T07:02:30.818Z,12.21
2024-05-09T07:03:29.780Z,12.30
2024-05-09T07:04:29.841Z,12.30
2024-05-09T07:05:29.839Z,12.36
2024-05-09T07:06:29.715Z,12.43
2024-05-09T07:07:29.701Z,12.47
2024-05-09T07:08:29.704Z,12.58
2024-05-09T07:09:29.663Z,12.63
2024-05-09T07:10:34.792Z,12.65
2024-05-09T07:11:30.751Z,12.71
2024-05-09T07:12:29.771Z,12.62
2024-05-09T07:13:29.658Z,12.63
2024-05-09T07:14:29.872Z,12.66
2024-05-09T07:15:29.636Z,12.69
2024-05-09T07:16:29.623Z,12.77
2024-05-09T07:17:29.841Z,12.83
2024-05-09T07:18:29.848Z,12.87
2024-05-09T07:19:29.704Z,12.95
2024-05-09T07:20:34.498Z,13.04
2024-05-09T07:21:31.587Z,13.09
2024-05-09T07:22:29.612Z,13.13
2024-05-09T07:23:29.630Z,13.11
2024-05-09T07:24:29.601Z,13.21
2024-05-09T07:25:29.770Z,13.11
2024-05-09T07:26:29.659Z,13.21
2024-05-09T07:27:29.950Z,13.20
2024-05-09T07:28:29.555Z,13.26
2024-05-09T07:29:29.661Z,13.40
2024-05-09T07:30:33.504Z,13.43
2024-05-09T07:31:31.575Z,13.47
2024-05-09T07:32:29.661Z,13.51
2024-05-09T07:33:29.702Z,13.54
2024-05-09T07:34:29.665Z,13.63
2024-05-09T07:35:29.785Z,13.65
2024-05-09T07:36:29.550Z,13.71
2024-05-09T07:37:29.548Z,13.83
2024-05-09T07:38:29.571Z,13.75
2024-05-09T07:39:29.524Z,13.91
2024-05-09T07:40:35.634Z,13.97
2024-05-09T07:41:30.673Z,13.98
2024-05-09T07:42:29.538Z,14.03
2024-05-09T07:43:30.495Z,14.05
2024-05-09T07:44:29.535Z,14.09
2024-05-09T07:45:45.802Z,14.26
2024-05-09T07:47:37.123Z,14.18
2024-05-09T07:48:57.442Z,14.27
2024-05-09T07:50:01.284Z,14.26
2024-05-09T07:53:08.313Z,14.61
2024-05-09T07:53:32.698Z,14.49
2024-05-09T07:53:40.411Z,14.59
2024-05-09T07:54:31.574Z,14.64
2024-05-09T07:55:29.623Z,14.69
2024-05-09T07:56:29.977Z,14.71
2024-05-09T07:57:29.457Z,14.85
2024-05-09T07:58:29.537Z,14.83
2024-05-09T07:59:29.457Z,14.79
2024-05-09T08:00:31.728Z,14.93
2024-05-09T08:01:30.577Z,14.89
2024-05-09T08:02:29.578Z,14.87
2024-05-09T08:03:29.587Z,14.89
2024-05-09T08:04:29.549Z,14.90
2024-05-09T08:05:29.560Z,15.01
2024-05-09T08:06:29.428Z,15.10
2024-05-09T08:07:29.371Z,15.14
2024-05-09T08:08:29.441Z,15.07
2024-05-09T08:09:29.632Z,15.12
2024-05-09T08:10:29.562Z,15.27
2024-05-09T08:11:29.393Z,15.27
2024-05-09T08:12:29.411Z,15.45
2024-05-09T08:13:29.373Z,15.40
2024-05-09T08:14:29.358Z,15.48
2024-05-09T08:15:29.694Z,15.51
2024-05-09T08:16:29.515Z,15.52
2024-05-09T08:17:29.402Z,15.70
2024-05-09T08:18:29.615Z,15.70
2024-05-09T08:19:29.375Z,15.78
2024-05-09T08:20:33.652Z,15.80
2024-05-09T08:21:31.359Z,15.84
2024-05-09T08:22:29.324Z,15.81
2024-05-09T08:23:29.299Z,15.93
2024-05-09T08:24:29.353Z,15.93
2024-05-09T08:25:29.283Z,16.05
2024-05-09T08:26:29.297Z,16.00
2024-05-09T08:27:29.280Z,16.02
2024-05-09T08:28:29.321Z,16.17
2024-05-09T08:29:29.277Z,16.08
2024-05-09T08:30:33.866Z,16.14
2024-05-09T08:31:30.477Z,16.16
2024-05-09T08:32:29.893Z,16.21
2024-05-09T08:33:29.479Z,16.10
2024-05-09T08:34:29.392Z,16.26
2024-05-09T08:35:29.235Z,16.42
2024-05-09T08:36:29.385Z,16.49
2024-05-09T08:37:32.878Z,16.51
2024-05-09T08:38:31.223Z,16.62
2024-05-09T08:39:29.264Z,16.77
2024-05-09T08:40:34.468Z,16.90
2024-05-09T08:41:31.260Z,16.83
2024-05-09T08:42:29.278Z,16.95
2024-05-09T08:43:30.973Z,17.01
2024-05-09T08:44:29.196Z,17.14
2024-05-09T08:45:29.264Z,17.22
2024-05-09T08:46:29.369Z,17.34
2024-05-09T08:47:29.265Z,17.46
2024-05-09T08:48:29.328Z,17.35
2024-05-09T08:49:29.686Z,17.56
2024-05-09T08:50:36.426Z,17.59
2024-05-09T08:51:30.218Z,17.57
2024-05-09T08:52:29.136Z,17.65
2024-05-09T08:53:29.164Z,17.56
2024-05-09T08:54:29.229Z,17.62
2024-05-09T08:55:29.129Z,17.59
2024-05-09T08:56:29.125Z,17.56
2024-05-09T08:57:29.129Z,17.71
2024-05-09T08:58:29.116Z,17.62
2024-05-09T08:59:29.106Z,17.69
2024-05-09T09:00:36.099Z,17.73
2024-05-09T09:01:32.057Z,17.81
2024-05-09T09:02:29.177Z,17.81
2024-05-09T09:03:29.415Z,17.88
2024-05-09T09:04:29.158Z,18.08
2024-05-09T09:05:29.270Z,18.20
2024-05-09T09:06:29.086Z,18.05
2024-05-09T09:07:29.176Z,18.01
2024-05-09T09:08:29.075Z,17.91
2024-05-09T09:09:30.107Z,17.94
2024-05-09T09:10:31.868Z,18.02
2024-05-09T09:11:30.108Z,17.94
2024-05-09T09:12:29.151Z,18.15
2024-05-09T09:13:29.050Z,18.09
2024-05-09T09:14:29.028Z,18.27
2024-05-09T09:15:29.064Z,18.36
2024-05-09T09:16:29.030Z,18.48
2024-05-09T09:17:29.862Z,18.51
2024-05-09T09:18:29.373Z,18.60
2024-05-09T09:19:29.051Z,18.64
2024-05-09T09:20:35.675Z,18.45
2024-05-09T09:21:31.059Z,18.27
2024-05-09T09:22:29.003Z,18.08
2024-05-09T09:23:28.965Z,17.90
2024-05-09T09:24:29.020Z,17.90
2024-05-09T09:25:28.984Z,18.18
2024-05-09T09:26:28.960Z,18.11
2024-05-09T09:27:29.004Z,18.11
2024-05-09T09:28:28.961Z,18.11
2024-05-09T09:29:28.970Z,18.06
2024-05-09T09:30:36.351Z,18.01
2024-05-09T09:31:31.141Z,18.23
2024-05-09T09:32:29.011Z,18.26
2024-05-09T09:33:29.065Z,18.36
2024-05-09T09:34:29.189Z,18.48
2024-05-09T09:35:28.932Z,18.57
2024-05-09T09:36:29.023Z,18.36
2024-05-09T09:37:28.917Z,18.42
2024-05-09T09:38:28.918Z,18.42
2024-05-09T09:39:28.913Z,18.38
2024-05-09T09:40:32.279Z,18.26
2024-05-09T09:41:31.076Z,18.28
2024-05-09T09:42:28.915Z,18.23
2024-05-09T09:43:28.891Z,18.31
2024-05-09T09:44:28.879Z,18.38
2024-05-09T09:45:28.941Z,18.48
2024-05-09T09:46:29.022Z,18.57
2024-05-09T09:47:29.015Z,18.68
2024-05-09T09:48:29.024Z,19.04
2024-05-09T09:49:28.895Z,19.09
2024-05-09T09:50:34.274Z,19.20
2024-05-09T09:51:29.905Z,19.15
2024-05-09T09:52:29.193Z,18.98
2024-05-09T09:53:28.830Z,19.27
2024-05-09T09:54:28.855Z,19.01
2024-05-09T09:55:28.825Z,19.07
2024-05-09T09:56:28.835Z,18.82
2024-05-09T09:57:28.854Z,18.76
2024-05-09T09:58:28.858Z,19.04
2024-05-09T09:59:28.807Z,19.16
2024-05-09T10:00:32.911Z,19.12
2024-05-09T10:01:30.994Z,19.04
2024-05-09T10:02:28.992Z,19.09
2024-05-09T10:03:29.042Z,19.30
2024-05-09T10:04:28.904Z,19.39
2024-05-09T10:05:29.027Z,19.57
2024-05-09T10:06:28.812Z,19.50
2024-05-09T10:07:28.803Z,19.63
2024-05-09T10:08:28.807Z,19.60
2024-05-09T10:09:28.805Z,19.63
2024-05-09T10:10:32.333Z,19.37
2024-05-09T10:11:29.831Z,19.35
2024-05-09T10:12:28.833Z,19.34
2024-05-09T10:13:28.805Z,19.44
2024-05-09T10:14:28.791Z,19.26
2024-05-09T10:15:28.800Z,19.41
2024-05-09T10:16:28.823Z,19.45
2024-05-09T10:17:28.922Z,19.64
2024-05-09T10:18:31.187Z,19.72
2024-05-09T10:19:28.853Z,19.77
2024-05-09T10:20:32.535Z,19.86
2024-05-09T10:21:28.711Z,19.59
2024-05-09T10:22:28.799Z,19.59
2024-05-09T10:23:28.755Z,19.52
2024-05-09T10:24:28.684Z,19.54
2024-05-09T10:25:28.713Z,19.41
2024-05-09T10:26:28.670Z,19.07
2024-05-09T10:27:28.737Z,18.81
2024-05-09T10:28:28.703Z,18.85
2024-05-09T10:29:28.662Z,19.24
2024-05-09T10:30:34.235Z,19.52
2024-05-09T10:31:29.739Z,19.63
2024-05-09T10:32:28.751Z,19.68
2024-05-09T10:33:28.809Z,19.74
2024-05-09T10:34:28.769Z,19.87
2024-05-09T10:35:28.627Z,19.96
2024-05-09T10:36:29.674Z,20.18
2024-05-09T10:37:28.704Z,20.18
2024-05-09T10:38:28.627Z,20.12
2024-05-09T10:39:28.636Z,20.11
2024-05-09T10:40:31.286Z,20.05
2024-05-09T10:41:29.606Z,20.12
2024-05-09T10:42:28.648Z,19.99
2024-05-09T10:43:28.630Z,20.14
2024-05-09T10:44:28.589Z,20.19
2024-05-09T10:45:28.654Z,20.50
2024-05-09T10:46:29.309Z,20.50
2024-05-09T10:47:28.679Z,20.79
2024-05-09T10:48:28.662Z,20.92
2024-05-09T10:49:28.581Z,20.93
2024-05-09T10:50:31.991Z,20.67
2024-05-09T10:51:28.617Z,20.44
2024-05-09T10:52:28.682Z,20.23
2024-05-09T10:53:28.527Z,20.08
2024-05-09T10:54:28.590Z,19.81
2024-05-09T10:55:28.586Z,19.82
2024-05-09T10:56:28.550Z,19.94
2024-05-09T10:57:28.576Z,20.12
2024-05-09T10:58:28.523Z,20.18
2024-05-09T10:59:28.517Z,19.84
2024-05-09T11:00:33.693Z,19.70
2024-05-09T11:01:29.587Z,19.49
2024-05-09T11:02:28.722Z,19.54
2024-05-09T11:03:28.631Z,19.34
2024-05-09T11:04:28.571Z,19.53
2024-05-09T11:05:28.709Z,19.72
2024-05-09T11:06:28.516Z,19.74
2024-05-09T11:07:28.549Z,19.72
2024-05-09T11:08:28.480Z,19.81
2024-05-09T11:09:28.499Z,19.90
2024-05-09T11:10:33.740Z,19.94
2024-05-09T11:11:28.584Z,20.18
2024-05-09T11:12:28.562Z,20.27
2024-05-09T11:13:28.447Z,21.35
2024-05-09T11:14:28.436Z,22.41
2024-05-09T11:15:28.424Z,23.07
2024-05-09T11:16:28.434Z,22.37
2024-05-09T11:17:28.729Z,22.44
2024-05-09T11:18:30.787Z,22.91
2024-05-09T11:19:29.486Z,23.89
2024-05-09T11:20:29.969Z,24.34
2024-05-09T11:21:29.497Z,24.43
2024-05-09T11:22:28.449Z,24.43
2024-05-09T11:23:28.401Z,25.37
2024-05-09T11:24:28.432Z,26.65
2024-05-09T11:25:28.388Z,28.25
2024-05-09T11:26:28.378Z,29.84
2024-05-09T11:27:28.505Z,30.71
2024-05-09T11:28:28.790Z,31.46
2024-05-09T11:29:28.395Z,32.64
2024-05-09T11:30:31.880Z,33.07
2024-05-09T11:31:28.470Z,33.89
2024-05-09T11:32:28.506Z,33.73
2024-05-09T11:33:28.487Z,33.20
2024-05-09T11:34:28.348Z,33.69
2024-05-09T11:35:28.346Z,34.62
2024-05-09T11:36:28.381Z,34.75
2024-05-09T11:37:28.360Z,31.54
2024-05-09T11:38:28.370Z,29.62
2024-05-09T11:39:28.363Z,27.76
2024-05-09T11:40:33.966Z,27.73
2024-05-09T11:41:30.344Z,27.08
2024-05-09T11:42:28.321Z,27.13
2024-05-09T11:43:28.360Z,27.44
2024-05-09T11:44:28.296Z,28.42
2024-05-09T11:45:28.408Z,29.65
2024-05-09T11:46:28.347Z,30.24
2024-05-09T11:47:28.366Z,31.91
2024-05-09T11:48:28.516Z,32.95
2024-05-09T11:49:28.355Z,31.57
2024-05-09T11:50:32.867Z,31.71
2024-05-09T11:51:28.280Z,32.73
2024-05-09T11:52:28.284Z,33.60
2024-05-09T11:53:28.298Z,34.42
2024-05-09T11:54:28.281Z,34.20
2024-05-09T11:55:28.639Z,35.17
2024-05-09T11:56:28.254Z,36.06
2024-05-09T11:57:28.368Z,35.13
2024-05-09T11:58:28.272Z,33.19
2024-05-09T11:59:28.268Z,32.01
2024-05-09T12:00:34.191Z,30.56
2024-05-09T12:01:30.449Z,29.36
2024-05-09T12:02:28.369Z,28.50
2024-05-09T12:03:28.291Z,27.87
2024-05-09T12:04:28.328Z,26.73
2024-05-09T12:05:28.590Z,25.55
2024-05-09T12:06:28.234Z,24.66
2024-05-09T12:07:28.256Z,24.26
2024-05-09T12:08:28.209Z,23.92
2024-05-09T12:09:28.274Z,23.01
2024-05-09T12:10:33.350Z,22.96
2024-05-09T12:11:29.376Z,24.70
2024-05-09T12:12:28.233Z,24.51
2024-05-09T12:13:28.370Z,24.22
2024-05-09T12:14:28.188Z,24.13
2024-05-09T12:15:28.215Z,23.46
2024-05-09T12:16:28.395Z,22.99
2024-05-09T12:17:28.250Z,22.56
2024-05-09T12:18:28.298Z,22.22
2024-05-09T12:19:28.217Z,22.15
2024-05-09T12:20:35.117Z,21.94
2024-05-09T12:21:30.202Z,21.71
2024-05-09T12:22:28.129Z,21.44
2024-05-09T12:23:28.158Z,21.66
2024-05-09T12:24:28.172Z,24.03
2024-05-09T12:25:28.123Z,26.33
2024-05-09T12:26:28.108Z,28.27
2024-05-09T12:27:28.195Z,29.59
2024-05-09T12:28:28.152Z,30.21
2024-05-09T12:29:28.119Z,30.14
2024-05-09T12:30:35.686Z,28.77
2024-05-09T12:31:29.216Z,27.49
2024-05-09T12:32:28.228Z,27.07
2024-05-09T12:33:28.271Z,26.65
2024-05-09T12:34:28.118Z,26.10
2024-05-09T12:35:28.090Z,25.64
2024-05-09T12:36:28.166Z,25.55
2024-05-09T12:37:28.059Z,25.33
2024-05-09T12:38:28.066Z,25.06
2024-05-09T12:39:28.085Z,24.47
2024-05-09T12:40:35.225Z,24.19
2024-05-09T12:41:30.048Z,24.22
2024-05-09T12:42:29.478Z,24.04
2024-05-09T12:43:28.240Z,23.91
2024-05-09T12:44:28.535Z,23.15
2024-05-09T12:45:28.176Z,22.81
2024-05-09T12:46:28.169Z,22.28
2024-05-09T12:47:28.117Z,21.98
2024-05-09T12:48:28.333Z,21.77
2024-05-09T12:49:28.239Z,21.59
2024-05-09T12:50:32.617Z,21.51
2024-05-09T12:51:29.051Z,21.34
2024-05-09T12:52:28.006Z,21.44
2024-05-09T12:53:27.984Z,21.78
2024-05-09T12:54:28.004Z,22.03
2024-05-09T12:55:28.673Z,22.12
2024-05-09T12:56:28.980Z,22.01
2024-05-09T12:57:27.971Z,22.00
2024-05-09T12:58:28.022Z,21.78
2024-05-09T12:59:27.981Z,21.77
2024-05-09T13:00:33.548Z,21.62
2024-05-09T13:01:29.034Z,21.73
2024-05-09T13:02:28.180Z,21.77
2024-05-09T13:03:28.164Z,21.90
2024-05-09T13:04:28.174Z,21.82